Time;durP1;ratioP1;P1;durP2;ratioP2;P2;SDS_P1;SDS_P2;PMS_P1;PMS_P2;Temp;Humidity;BMP_temperature;BMP_pressure;BME280_temperature;BME280_humidity;BME280_pressure;Samples;Min_cycle;Max_cycle;Signal;HPM_P1;HPM_P2
2023/10/03 00:01:22;;;;;;;41.27;19.43;;;;;;;15.35;100.00;101062.00;7393353;19;20405;-56
2023/10/03 00:03:52;;;;;;;39.10;18.80;;;;;;;15.37;100.00;101057.72;7368960;19;20459;-51
2023/10/03 00:06:23;;;;;;;32.97;18.10;;;;;;;15.31;100.00;101039.38;7391943;19;20391;-55
2023/10/03 00:08:54;;;;;;;36.50;18.37;;;;;;;15.29;100.00;101031.53;7369652;19;20387;-54
2023/10/03 00:11:24;;;;;;;36.90;18.00;;;;;;;15.31;100.00;101022.06;7391747;19;20387;-53
2023/10/03 00:13:57;;;;;;;35.30;17.90;;;;;;;15.31;100.00;101022.06;7368544;19;20400;-54
2023/10/03 00:16:28;;;;;;;39.07;17.97;;;;;;;15.31;100.00;101019.47;7393434;19;20455;-54
2023/10/03 00:18:58;;;;;;;37.07;17.93;;;;;;;15.28;100.00;101021.09;7371753;19;20416;-56
2023/10/03 00:21:28;;;;;;;32.10;16.30;;;;;;;15.19;100.00;101025.22;7391003;19;20399;-51
2023/10/03 00:23:58;;;;;;;35.70;16.40;;;;;;;15.16;100.00;101032.91;7368995;19;20387;-50
2023/10/03 00:26:28;;;;;;;29.80;15.87;;;;;;;15.11;100.00;101034.50;7393090;19;20755;-52
2023/10/03 00:29:01;;;;;;;34.90;16.37;;;;;;;15.11;100.00;101037.09;7373565;19;20421;-55
2023/10/03 00:31:33;;;;;;;31.83;15.50;;;;;;;15.18;100.00;101031.22;7392592;19;20384;-50
2023/10/03 00:34:03;;;;;;;32.73;15.97;;;;;;;15.18;100.00;101026.03;7373402;19;20423;-57
2023/10/03 00:36:32;;;;;;;38.00;17.67;;;;;;;15.20;100.00;101020.88;7393865;19;20406;-50
2023/10/03 00:39:05;;;;;;;39.50;16.77;;;;;;;15.27;100.00;101009.81;7376048;19;20405;-53
2023/10/03 00:41:37;;;;;;;29.00;15.77;;;;;;;15.31;100.00;101011.66;7395455;19;20426;-50
2023/10/03 00:44:10;;;;;;;30.87;16.00;;;;;;;15.33;100.00;101014.31;7373277;19;20423;-49
2023/10/03 00:46:39;;;;;;;35.63;15.77;;;;;;;15.37;100.00;101003.13;7393289;19;21173;-54
2023/10/03 00:49:14;;;;;;;37.80;16.27;;;;;;;15.35;100.00;100997.91;7375247;19;20750;-53
2023/10/03 00:51:45;;;;;;;30.33;16.17;;;;;;;15.38;100.00;100991.88;7391049;19;20391;-53
2023/10/03 00:54:16;;;;;;;35.63;16.43;;;;;;;15.34;100.00;100995.28;7369782;19;20407;-54
2023/10/03 00:56:47;;;;;;;31.97;15.60;;;;;;;15.32;100.00;100991.72;7390855;19;20388;-53
2023/10/03 00:59:19;;;;;;;34.20;15.63;;;;;;;15.35;100.00;100981.44;7369859;19;20402;-50
2023/10/03 01:01:49;;;;;;;35.83;17.40;;;;;;;15.38;100.00;100984.97;7392334;19;20387;-54
2023/10/03 01:04:20;;;;;;;39.43;17.13;;;;;;;15.34;100.00;100972.75;7368687;19;20419;-51
2023/10/03 01:06:50;;;;;;;31.83;15.53;;;;;;;15.36;100.00;100967.59;7394910;19;20391;-51
2023/10/03 01:09:23;;;;;;;38.03;16.67;;;;;;;15.36;100.00;100959.78;7369878;19;20455;-54
2023/10/03 01:11:54;;;;;;;35.80;16.87;;;;;;;15.38;100.00;100950.28;7397283;19;20445;-52
2023/10/03 01:14:26;;;;;;;33.97;17.20;;;;;;;15.32;100.00;100951.03;7368404;19;20424;-49
2023/10/03 01:16:56;;;;;;;32.87;16.27;;;;;;;15.31;100.00;100933.69;7390383;19;20388;-56
2023/10/03 01:19:30;;;;;;;34.53;16.20;;;;;;;15.40;100.00;100933.03;7368842;19;20422;-54
2023/10/03 01:22:00;;;;;;;34.80;16.27;;;;;;;15.34;100.00;100923.34;7391412;19;20919;-54
2023/10/03 01:24:32;;;;;;;38.20;17.83;;;;;;;15.28;100.00;100923.19;7369215;19;20395;-57
2023/10/03 01:27:01;;;;;;;34.33;16.57;;;;;;;15.27;100.00;100920.59;7394372;19;20399;-53
2023/10/03 01:29:31;;;;;;;34.40;14.90;;;;;;;15.23;100.00;100920.50;7370689;19;20402;-57
2023/10/03 01:32:01;;;;;;;34.77;17.03;;;;;;;15.27;100.00;100910.19;7394512;19;20402;-55
2023/10/03 01:34:31;;;;;;;29.77;14.77;;;;;;;15.22;100.00;100908.34;7367531;19;20407;-53
2023/10/03 01:37:01;;;;;;;36.27;16.80;;;;;;;15.24;100.00;100905.78;7389647;19;20384;-52
2023/10/03 01:39:33;;;;;;;30.97;15.50;;;;;;;15.25;100.00;100897.13;7368041;19;20423;-55
2023/10/03 01:42:03;;;;;;;35.93;16.00;;;;;;;15.23;100.00;100889.31;7390257;19;20737;-58
2023/10/03 01:44:32;;;;;;;34.93;15.97;;;;;;;15.29;100.00;100882.50;7367639;19;20416;-57
2023/10/03 01:47:03;;;;;;;29.57;15.37;;;;;;;15.27;100.00;100881.59;7389880;19;20744;-50
2023/10/03 01:49:33;;;;;;;35.50;14.87;;;;;;;15.31;100.00;100873.00;7365820;19;20836;-53
2023/10/03 01:52:04;;;;;;;32.90;15.70;;;;;;;15.31;100.00;100873.00;7389873;19;20388;-50
2023/10/03 01:54:38;;;;;;;29.07;14.13;;;;;;;15.33;100.00;100868.75;7364153;19;20543;-54
2023/10/03 01:57:08;;;;;;;29.13;14.30;;;;;;;15.29;100.00;100867.78;7395100;19;20425;-53
2023/10/03 01:59:37;;;;;;;32.50;15.20;;;;;;;15.22;100.00;100861.56;7369880;19;21007;-52
2023/10/03 02:02:07;;;;;;;31.30;15.07;;;;;;;15.23;100.00;100852.91;7395051;19;20407;-52
2023/10/03 02:04:37;;;;;;;33.43;15.20;;;;;;;15.24;100.00;100857.25;7370454;19;20411;-50
2023/10/03 02:07:07;;;;;;;27.53;14.70;;;;;;;15.31;100.00;100857.41;7393258;19;20418;-53
2023/10/03 02:09:39;;;;;;;29.17;14.63;;;;;;;15.23;100.00;100847.72;7369921;19;20607;-55
2023/10/03 02:12:10;;;;;;;31.30;15.07;;;;;;;15.25;100.00;100840.84;7394718;19;20421;-50
2023/10/03 02:14:42;;;;;;;33.03;14.93;;;;;;;15.24;100.00;100833.00;7367160;19;20430;-57
2023/10/03 02:17:11;;;;;;;27.50;14.27;;;;;;;15.24;100.00;100820.88;7392847;19;20937;-52
2023/10/03 02:19:41;;;;;;;35.20;14.23;;;;;;;15.27;100.00;100827.00;7370137;19;20455;-53
2023/10/03 02:22:12;;;;;;;30.97;13.70;;;;;;;15.24;100.00;100813.09;7395076;19;20410;-54
2023/10/03 02:24:44;;;;;;;35.23;14.77;;;;;;;15.27;100.00;100817.47;7368478;19;20411;-50
2023/10/03 02:27:14;;;;;;;29.20;14.30;;;;;;;15.28;100.00;100803.63;7391271;19;20467;-54
2023/10/03 02:29:44;;;;;;;30.33;12.63;;;;;;;15.24;100.00;100802.69;7369232;19;20451;-52
2023/10/03 02:32:14;;;;;;;28.10;13.23;;;;;;;15.22;100.00;100795.69;7391041;19;20487;-54
2023/10/03 02:34:43;;;;;;;31.17;13.90;;;;;;;15.23;100.00;100792.28;7368037;19;20530;-52
2023/10/03 02:37:13;;;;;;;24.87;13.20;;;;;;;15.23;100.00;100789.69;7390408;19;20495;-50
2023/10/03 02:39:46;;;;;;;27.03;12.47;;;;;;;15.18;100.00;100786.94;7367022;19;20526;-56
2023/10/03 02:42:16;;;;;;;29.67;12.80;;;;;;;15.21;100.00;100779.25;7393895;19;20432;-51
2023/10/03 02:44:45;;;;;;;28.93;12.97;;;;;;;15.21;100.00;100761.06;7374552;19;20490;-52
2023/10/03 02:47:15;;;;;;;30.53;13.07;;;;;;;15.24;100.00;100750.72;7399647;19;20418;-55
2023/10/03 02:49:45;;;;;;;25.80;12.13;;;;;;;15.22;100.00;100738.53;7375066;19;21042;-51
2023/10/03 02:52:15;;;;;;;27.60;12.63;;;;;;;15.22;100.00;100731.63;7399568;19;20406;-51
2023/10/03 02:54:48;;;;;;;26.73;11.57;;;;;;;15.20;100.00;100717.72;7375848;19;20449;-52
2023/10/03 02:57:18;;;;;;;29.37;12.33;;;;;;;15.27;100.00;100712.66;7396865;19;21019;-54
2023/10/03 02:59:47;;;;;;;36.53;18.53;;;;;;;15.36;100.00;100705.03;7374995;19;20533;-57
2023/10/03 03:02:19;;;;;;;27.83;14.87;;;;;;;15.37;100.00;100683.41;7399864;19;20762;-56
2023/10/03 03:04:49;;;;;;;22.93;11.67;;;;;;;15.42;100.00;100676.56;7373683;19;20422;-52
2023/10/03 03:07:19;;;;;;;22.33;11.47;;;;;;;15.41;100.00;100669.63;7400157;19;20410;-51
2023/10/03 03:09:56;;;;;;;32.20;16.90;;;;;;;15.40;100.00;100675.69;7374900;19;20451;-57
2023/10/03 03:12:27;;;;;;;35.97;17.83;;;;;;;15.53;100.00;100668.97;7398241;19;20395;-55
2023/10/03 03:14:58;;;;;;;31.87;13.80;;;;;;;15.41;100.00;100664.44;7373116;19;20415;-55
2023/10/03 03:17:28;;;;;;;22.63;11.40;;;;;;;15.45;100.00;100653.25;7397065;19;20396;-54
2023/10/03 03:19:59;;;;;;;26.90;11.30;;;;;;;15.47;100.00;100654.16;7374742;19;20458;-53
2023/10/03 03:22:29;;;;;;;25.27;11.87;;;;;;;15.39;100.00;100658.34;7396590;19;20411;-54
2023/10/03 03:25:03;;;;;;;19.80;10.53;;;;;;;15.33;100.00;100653.00;7375074;19;20430;-54
2023/10/03 03:27:39;;;;;;;21.00;11.17;;;;;;;15.31;100.00;100652.06;7396452;19;20399;-54
2023/10/03 03:30:33;;;;;;;28.60;11.30;;;;;;;15.27;100.00;100645.94;7372841;19;20471;-51
2023/10/03 03:33:06;;;;;;;21.67;11.50;;;;;;;15.21;100.00;100661.41;7397666;19;20431;-51
2023/10/03 03:35:40;;;;;;;23.63;10.90;;;;;;;15.13;100.00;100648.28;7373788;19;20444;-52
2023/10/03 03:38:15;;;;;;;27.57;12.57;;;;;;;15.14;100.00;100639.63;7400400;19;20409;-53
2023/10/03 03:40:55;;;;;;;21.10;10.40;;;;;;;15.19;100.00;100622.41;7371294;19;20459;-55
2023/10/03 03:43:25;;;;;;;26.10;11.17;;;;;;;15.12;100.00;100616.19;7398334;19;20404;-54
2023/10/03 03:45:55;;;;;;;24.70;11.63;;;;;;;15.21;100.00;100606.84;7373932;19;20450;-57
2023/10/03 03:48:25;;;;;;;24.97;10.60;;;;;;;15.11;100.00;100613.56;7396617;19;20463;-56
2023/10/03 03:50:55;;;;;;;25.30;10.47;;;;;;;14.97;100.00;100610.66;7371421;19;20491;-53
2023/10/03 03:53:25;;;;;;;21.00;10.60;;;;;;;14.94;100.00;100610.63;7395320;19;20736;-52
2023/10/03 03:55:58;;;;;;;19.70;9.93;;;;;;;14.87;100.00;100612.19;7370335;19;20451;-54
2023/10/03 03:58:30;;;;;;;23.67;10.37;;;;;;;14.83;100.00;100607.81;7396054;19;20491;-56
2023/10/03 04:01:00;;;;;;;20.57;9.40;;;;;;;14.75;100.00;100610.22;7371827;19;20465;-52
2023/10/03 04:03:34;;;;;;;21.97;10.00;;;;;;;14.76;100.00;100591.19;7398050;19;20392;-54
2023/10/03 04:06:05;;;;;;;24.30;11.00;;;;;;;14.75;100.00;100588.56;7374094;19;20435;-54
2023/10/03 04:08:35;;;;;;;19.40;9.63;;;;;;;14.79;100.00;100569.59;7398559;19;20416;-54
2023/10/03 04:11:11;;;;;;;18.43;8.93;;;;;;;14.79;100.00;100559.22;7373711;19;20481;-54
2023/10/03 04:13:49;;;;;;;23.10;10.13;;;;;;;14.77;100.00;100547.94;7395215;19;20403;-53
2023/10/03 04:16:21;;;;;;;20.00;9.60;;;;;;;14.80;100.00;100541.09;7373669;19;20438;-52
2023/10/03 04:18:58;;;;;;;21.73;9.57;;;;;;;14.74;100.00;100545.22;7376363;19;20415;-51
2023/10/03 04:21:28;;;;;;;20.23;8.80;;;;;;;14.74;100.00;100555.59;7397606;19;20417;-53
2023/10/03 04:23:59;;;;;;;17.60;8.00;;;;;;;14.76;100.00;100554.84;7375567;19;20803;-53
2023/10/03 04:26:32;;;;;;;23.40;9.13;;;;;;;14.79;100.00;100567.00;7396592;19;20414;-49
2023/10/03 04:29:02;;;;;;;18.57;8.70;;;;;;;14.75;100.00;100572.97;7376074;19;20411;-52
2023/10/03 04:31:32;;;;;;;17.07;8.83;;;;;;;14.76;100.00;100577.34;7396116;19;20399;-54
2023/10/03 04:34:02;;;;;;;17.37;8.20;;;;;;;14.72;100.00;100574.63;7374385;19;20435;-50
2023/10/03 04:36:32;;;;;;;19.77;8.80;;;;;;;14.76;100.00;100582.53;7394220;19;20411;-51
2023/10/03 04:39:04;;;;;;;20.57;8.63;;;;;;;14.76;100.00;100582.53;7373240;19;20412;-52
2023/10/03 04:41:43;;;;;;;19.60;9.83;;;;;;;14.81;100.00;100579.19;7394502;19;20439;-49
2023/10/03 04:44:15;;;;;;;21.93;9.03;;;;;;;14.76;100.00;100572.16;7374438;19;20422;-50
2023/10/03 04:46:48;;;;;;;25.03;9.10;;;;;;;14.75;100.00;100563.47;7394059;19;20400;-53
2023/10/03 04:49:18;;;;;;;19.03;9.17;;;;;;;14.81;100.00;100523.75;7372609;19;20467;-51
2023/10/03 04:51:48;;;;;;;19.27;8.60;;;;;;;14.83;100.00;100514.31;7394047;19;21025;-51
2023/10/03 04:54:18;;;;;;;16.03;7.67;;;;;;;14.82;100.00;100507.38;7372350;19;20982;-53
2023/10/03 04:56:51;;;;;;;18.77;8.60;;;;;;;14.82;100.00;100491.78;7395476;19;20406;-54
2023/10/03 04:59:21;;;;;;;20.63;9.07;;;;;;;14.70;100.00;100506.22;7373085;19;21034;-49
2023/10/03 05:01:51;;;;;;;16.50;8.60;;;;;;;14.74;100.00;100499.41;7395682;19;20443;-49
2023/10/03 05:04:21;;;;;;;19.90;9.83;;;;;;;14.63;100.00;100504.34;7372126;19;20454;-50
2023/10/03 05:06:50;;;;;;;30.50;12.50;;;;;;;14.73;100.00;100505.41;7395874;19;20951;-54
2023/10/03 05:09:20;;;;;;;20.50;9.00;;;;;;;14.70;100.00;100519.22;7371963;19;20468;-51
2023/10/03 05:11:53;;;;;;;21.67;9.80;;;;;;;14.71;100.00;100512.28;7393729;19;20443;-51
2023/10/03 05:14:23;;;;;;;26.53;13.00;;;;;;;14.83;100.00;100519.50;7371535;19;21107;-51
2023/10/03 05:16:52;;;;;;;23.53;10.80;;;;;;;14.83;100.00;100527.28;7394455;19;20441;-52
2023/10/03 05:19:22;;;;;;;19.47;8.80;;;;;;;14.76;100.00;100515.03;7372274;19;20451;-52
2023/10/03 05:21:52;;;;;;;22.07;9.70;;;;;;;14.82;100.00;100523.81;7395355;19;20411;-52
2023/10/03 05:24:21;;;;;;;18.57;8.80;;;;;;;14.79;100.00;100515.06;7371186;19;20447;-50
2023/10/03 05:26:55;;;;;;;20.07;8.70;;;;;;;14.77;100.00;100519.38;7394257;19;20507;-50
2023/10/03 05:29:25;;;;;;;25.83;10.07;;;;;;;14.77;100.00;100532.34;7371024;19;20459;-52
2023/10/03 05:31:55;;;;;;;18.40;8.17;;;;;;;14.79;100.00;100528.06;7393617;19;20420;-51
2023/10/03 05:34:25;;;;;;;20.90;9.47;;;;;;;14.84;100.00;100531.63;7371286;19;20469;-52
2023/10/03 05:36:55;;;;;;;19.83;8.70;;;;;;;14.80;100.00;100519.41;7394389;19;20411;-49
2023/10/03 05:39:26;;;;;;;22.10;10.10;;;;;;;14.89;100.00;100530.00;7372399;19;20455;-50
2023/10/03 05:42:00;;;;;;;19.50;8.60;;;;;;;14.96;100.00;100536.19;7395638;19;20471;-50
2023/10/03 05:44:29;;;;;;;21.33;8.40;;;;;;;14.96;100.00;100555.25;7372209;19;20423;-52
2023/10/03 05:46:59;;;;;;;18.13;8.17;;;;;;;14.97;100.00;100551.81;7395639;19;20432;-52
2023/10/03 05:49:29;;;;;;;22.10;9.33;;;;;;;15.02;100.00;100551.91;7372106;19;20451;-51
2023/10/03 05:51:58;;;;;;;17.17;7.70;;;;;;;15.06;100.00;100560.63;7395078;19;20426;-50
2023/10/03 05:54:30;;;;;;;19.43;8.27;;;;;;;15.09;100.00;100558.97;7371170;19;20428;-54
2023/10/03 05:57:02;;;;;;;18.70;7.83;;;;;;;15.09;100.00;100584.09;7393828;19;20408;-50
2023/10/03 05:59:32;;;;;;;20.90;8.10;;;;;;;15.14;100.00;100576.38;7370090;19;20526;-54
2023/10/03 06:02:03;;;;;;;20.83;8.43;;;;;;;15.16;100.00;100600.66;7393016;19;20499;-53
2023/10/03 06:04:36;;;;;;;26.90;7.57;;;;;;;15.17;100.00;100603.31;7369921;19;20948;-49
2023/10/03 06:07:06;;;;;;;22.07;9.00;;;;;;;15.18;100.00;100618.03;7392883;19;20416;-53
2023/10/03 06:09:37;;;;;;;24.00;9.00;;;;;;;15.19;100.00;100621.53;7369871;19;20828;-48
2023/10/03 06:12:09;;;;;;;21.80;10.00;;;;;;;15.19;100.00;100619.81;7395441;19;20412;-54
2023/10/03 06:14:40;;;;;;;22.00;9.23;;;;;;;15.21;100.00;100612.03;7369664;19;20429;-52
2023/10/03 06:17:12;;;;;;;20.53;9.07;;;;;;;15.21;100.00;100604.25;7395762;19;20403;-52
2023/10/03 06:19:42;;;;;;;22.27;8.70;;;;;;;15.22;100.00;100601.69;7375732;19;20516;-50
2023/10/03 06:22:12;;;;;;;19.73;8.30;;;;;;;15.27;100.00;100599.16;7399038;19;20403;-50
2023/10/03 06:24:42;;;;;;;20.87;8.70;;;;;;;15.29;100.00;100605.28;7376086;19;20442;-50
2023/10/03 06:27:14;;;;;;;20.03;8.27;;;;;;;15.32;100.00;100612.25;7398228;19;20400;-50
2023/10/03 06:29:44;;;;;;;21.37;8.80;;;;;;;15.36;100.00;100614.06;7375347;19;20951;-51
2023/10/03 06:32:14;;;;;;;21.40;8.50;;;;;;;15.43;100.00;100617.69;7399989;19;20796;-48
2023/10/03 06:34:43;;;;;;;22.63;9.43;;;;;;;15.50;100.00;100615.19;7373402;19;20443;-49
2023/10/03 06:37:13;;;;;;;18.53;8.70;;;;;;;15.53;100.00;100623.06;7394625;19;20415;-51
2023/10/03 06:39:43;;;;;;;32.37;13.77;;;;;;;15.61;100.00;100620.63;7376220;19;20471;-51
2023/10/03 06:42:16;;;;;;;22.90;8.97;;;;;;;15.74;100.00;100629.53;7398550;19;20490;-52
2023/10/03 06:44:47;;;;;;;25.30;9.53;;;;;;;15.84;100.00;100642.72;7375300;19;20446;-50
2023/10/03 06:47:18;;;;;;;28.27;10.17;;;;;;;15.88;100.00;100649.69;7396028;19;20407;-50
2023/10/03 06:49:49;;;;;;;20.40;9.33;;;;;;;16.18;100.00;100674.56;7376742;19;20455;-50
2023/10/03 06:52:18;;;;;;;21.63;9.50;;;;;;;16.38;100.00;100679.22;7398102;19;20479;-49
2023/10/03 06:54:48;;;;;;;23.03;9.90;;;;;;;16.63;100.00;100682.22;7377594;19;20511;-50
2023/10/03 06:57:20;;;;;;;25.43;10.40;;;;;;;16.99;100.00;100683.63;7397084;19;20435;-51
2023/10/03 06:59:51;;;;;;;19.30;7.30;;;;;;;17.19;100.00;100678.72;7375768;19;20458;-53
2023/10/03 07:02:21;;;;;;;21.63;9.17;;;;;;;17.35;100.00;100676.28;7396866;19;20427;-51
2023/10/03 07:04:51;;;;;;;27.67;9.17;;;;;;;17.53;100.00;100660.00;7377248;19;20446;-50
2023/10/03 07:07:20;;;;;;;24.17;9.47;;;;;;;17.65;100.00;100641.88;7399666;19;20938;-51
2023/10/03 07:09:50;;;;;;;26.67;9.13;;;;;;;17.80;100.00;100619.41;7374703;19;20534;-49
2023/10/03 07:12:23;;;;;;;26.83;10.27;;;;;;;17.87;100.00;100599.47;7399997;19;20408;-50
2023/10/03 07:14:52;;;;;;;23.10;9.00;;;;;;;17.94;100.00;100590.81;7375818;19;20414;-50
2023/10/03 07:17:23;;;;;;;25.40;9.20;;;;;;;17.97;100.00;100589.97;7399856;19;20757;-53
2023/10/03 07:19:53;;;;;;;20.90;8.60;;;;;;;18.03;100.00;100592.63;7374936;19;21067;-50
2023/10/03 07:22:22;;;;;;;19.03;8.70;;;;;;;18.08;100.00;100586.66;7395788;19;20428;-49
2023/10/03 07:24:52;;;;;;;20.90;7.83;;;;;;;18.10;100.00;100570.97;7369653;19;20443;-51
2023/10/03 07:27:24;;;;;;;24.20;9.13;;;;;;;18.12;100.00;100568.38;7389645;19;20423;-52
2023/10/03 07:29:54;;;;;;;27.40;9.47;;;;;;;18.15;100.00;100571.88;7367955;19;20470;-54
2023/10/03 07:32:24;;;;;;;22.17;9.03;;;;;;;18.21;100.00;100574.53;7393425;19;20507;-55
2023/10/03 07:34:53;;;;;;;28.43;9.70;;;;;;;18.20;100.00;100588.47;7372814;19;20419;-53
2023/10/03 07:37:24;;;;;;;20.47;8.47;;;;;;;18.24;100.00;100580.66;7394807;19;20415;-53
2023/10/03 07:39:54;;;;;;;26.13;9.20;;;;;;;18.20;100.00;100598.06;7374437;19;21301;-53
2023/10/03 07:42:28;;;;;;;24.40;9.10;;;;;;;18.21;100.00;100621.53;7394234;19;20432;-54
2023/10/03 07:44:58;;;;;;;21.20;8.10;;;;;;;18.29;100.00;100624.22;7371941;19;20454;-54
2023/10/03 07:47:27;;;;;;;19.93;8.63;;;;;;;18.28;100.00;100642.47;7394522;19;20422;-53
2023/10/03 07:49:59;;;;;;;21.47;7.93;;;;;;;18.37;100.00;100655.63;7374908;19;20468;-52
2023/10/03 07:52:29;;;;;;;26.83;8.43;;;;;;;18.39;100.00;100635.59;7395664;19;20428;-52
2023/10/03 07:55:00;;;;;;;25.80;9.47;;;;;;;18.45;100.00;100640.88;7374641;19;21006;-51
2023/10/03 07:57:32;;;;;;;28.90;9.50;;;;;;;18.53;100.00;100632.22;7393374;19;20424;-50
2023/10/03 08:00:05;;;;;;;25.57;9.57;;;;;;;18.52;100.00;100631.34;7372819;19;20455;-55
2023/10/03 08:02:35;;;;;;;27.93;10.00;;;;;;;18.60;100.00;100628.78;7396191;19;20420;-48
2023/10/03 08:05:07;;;;;;;23.87;9.43;;;;;;;18.62;100.00;100627.06;7374882;19;20419;-49
2023/10/03 08:07:38;;;;;;;20.03;7.60;;;;;;;18.66;100.00;100620.13;7397468;19;20423;-49
2023/10/03 08:10:11;;;;;;;21.20;8.20;;;;;;;18.70;100.00;100620.13;7373882;19;20459;-52
2023/10/03 08:12:43;;;;;;;24.50;9.23;;;;;;;18.73;100.00;100611.44;7393755;19;20446;-53
2023/10/03 08:15:19;;;;;;;26.37;10.07;;;;;;;18.81;100.00;100621.94;7371769;19;20418;-54
2023/10/03 08:17:53;;;;;;;23.33;9.20;;;;;;;18.84;100.00;100620.22;7398048;19;20962;-54
2023/10/03 08:20:23;;;;;;;21.17;8.50;;;;;;;18.79;100.00;100611.47;7372106;19;20866;-54
2023/10/03 08:22:57;;;;;;;18.97;7.60;;;;;;;18.84;100.00;100617.63;7396363;19;20939;-53
2023/10/03 08:25:27;;;;;;;20.47;8.47;;;;;;;18.96;100.00;100618.50;7373004;19;20427;-53
2023/10/03 08:27:59;;;;;;;20.60;8.40;;;;;;;18.99;100.00;100619.44;7388585;19;20415;-49
2023/10/03 08:30:30;;;;;;;22.90;9.23;;;;;;;19.01;100.00;100609.84;7358393;19;20890;-55
2023/10/03 08:33:04;;;;;;;30.97;10.07;;;;;;;19.07;100.00;100618.63;7387106;19;20407;-49
2023/10/03 08:35:38;;;;;;;28.30;11.17;;;;;;;19.11;100.00;100602.94;7362471;19;20497;-51
2023/10/03 08:38:10;;;;;;;29.90;11.40;;;;;;;19.27;100.00;100606.50;7387460;19;21124;-51
2023/10/03 08:40:49;;;;;;;28.93;12.90;;;;;;;19.27;100.00;100606.50;7363022;19;20458;-50
2023/10/03 08:43:25;;;;;;;17.47;8.77;;;;;;;19.36;100.00;100582.09;7387497;19;20958;-50
2023/10/03 08:45:58;;;;;;;25.07;11.47;;;;;;;19.36;100.00;100583.84;7365015;19;20426;-51
2023/10/03 08:48:33;;;;;;;23.87;10.27;;;;;;;19.36;100.00;100569.03;7389124;19;20932;-49
2023/10/03 08:51:04;;;;;;;40.83;18.80;;;;;;;19.43;100.00;100569.91;7362718;19;20442;-49
2023/10/03 08:53:34;;;;;;;31.77;11.97;;;;;;;19.46;100.00;100569.03;7387538;19;20428;-52
2023/10/03 08:56:06;;;;;;;33.43;15.03;;;;;;;19.43;100.00;100569.91;7363854;19;20423;-54
2023/10/03 08:58:39;;;;;;;25.93;12.97;;;;;;;19.54;100.00;100577.78;7385809;19;20406;-52
2023/10/03 09:01:17;;;;;;;30.70;13.17;;;;;;;19.47;100.00;100569.03;7361504;19;20522;-50
2023/10/03 09:03:50;;;;;;;22.77;11.33;;;;;;;19.48;100.00;100570.78;7386623;19;20733;-52
2023/10/03 09:06:23;;;;;;;18.73;7.57;;;;;;;19.44;100.00;100587.38;7365932;19;20777;-49
2023/10/03 09:09:07;;;;;;;19.20;6.70;;;;;;;19.39;100.00;100591.72;7365277;19;20428;-53
2023/10/03 09:11:39;;;;;;;26.93;11.37;;;;;;;19.41;100.00;100576.88;7386357;19;20403;-54
2023/10/03 09:14:19;;;;;;;32.60;13.20;;;;;;;19.42;100.00;100586.47;7364186;19;20412;-53
2023/10/03 09:16:51;;;;;;;17.67;7.83;;;;;;;19.38;100.00;100546.34;7389110;19;20411;-50
2023/10/03 09:19:23;;;;;;;28.10;14.70;;;;;;;19.42;100.00;100565.53;7366259;19;20447;-49
2023/10/03 09:21:53;;;;;;;19.30;8.97;;;;;;;19.43;100.00;100556.81;7385917;19;20436;-54
2023/10/03 09:24:25;;;;;;;23.50;8.77;;;;;;;19.49;100.00;100548.13;7366413;19;20526;-52
2023/10/03 09:27:07;;;;;;;37.10;7.97;;;;;;;19.42;100.00;100563.81;7386252;19;20495;-53
2023/10/03 09:29:45;;;;;;;17.90;8.43;;;;;;;19.60;100.00;100535.06;7363781;19;20467;-55
2023/10/03 09:32:16;;;;;;;15.67;6.00;;;;;;;19.76;100.00;100520.22;7385079;19;20435;-52
2023/10/03 09:34:56;;;;;;;26.17;13.00;;;;;;;19.95;100.00;100500.16;7366007;19;20419;-52
2023/10/03 09:37:28;;;;;;;20.70;9.83;;;;;;;19.96;100.00;100491.47;7393308;19;20498;-54
2023/10/03 09:40:01;;;;;;;20.33;9.20;;;;;;;19.90;100.00;100486.19;7370508;19;20478;-50
2023/10/03 09:42:39;;;;;;;21.07;9.83;;;;;;;19.90;100.00;100473.13;7392431;19;20406;-53
2023/10/03 09:45:16;;;;;;;14.03;6.63;;;;;;;19.74;100.00;100457.41;7371361;19;20423;-54
2023/10/03 09:47:47;;;;;;;19.50;7.00;;;;;;;19.68;100.00;100501.91;7394183;19;20431;-53
2023/10/03 09:50:18;;;;;;;16.03;6.80;;;;;;;19.63;100.00;100519.38;7370901;19;20458;-50
2023/10/03 09:52:50;;;;;;;24.80;10.53;;;;;;;19.65;100.00;100518.47;7392958;19;20437;-50
2023/10/03 09:55:21;;;;;;;17.73;8.50;;;;;;;19.68;100.00;100533.31;7368192;19;20419;-50
2023/10/03 09:57:54;;;;;;;38.43;12.70;;;;;;;19.52;100.00;100542.88;7390542;19;20407;-50
2023/10/03 10:00:38;;;;;;;23.87;10.10;;;;;;;19.35;100.00;100572.53;7369553;19;20454;-54
2023/10/03 10:03:11;;;;;;;15.87;6.87;;;;;;;19.22;100.00;100608.22;7396145;19;20801;-55
2023/10/03 10:05:49;;;;;;;23.17;10.40;;;;;;;19.14;100.00;100628.22;7370637;19;20504;-52
2023/10/03 10:08:34;;;;;;;23.73;9.50;;;;;;;19.02;100.00;100658.69;7392299;19;20410;-53
2023/10/03 10:11:10;;;;;;;19.67;7.27;;;;;;;18.99;100.00;100653.41;7369241;19;20483;-53
2023/10/03 10:13:44;;;;;;;36.40;14.87;;;;;;;19.03;100.00;100655.19;7390151;19;20428;-53
2023/10/03 10:16:20;;;;;;;31.57;11.93;;;;;;;19.08;100.00;100642.13;7371113;19;20799;-49
2023/10/03 10:19:04;;;;;;;32.73;15.43;;;;;;;19.01;100.00;100650.78;7368388;19;20415;-50
2023/10/03 10:21:37;;;;;;;34.57;14.70;;;;;;;18.97;100.00;100670.81;7392935;19;20492;-56
2023/10/03 10:24:24;;;;;;;24.50;11.93;;;;;;;18.93;100.00;100669.06;7371296;19;20428;-48
2023/10/03 10:26:59;;;;;;;34.23;16.67;;;;;;;18.90;100.00;100674.25;7392561;19;20432;-53
2023/10/03 10:29:34;;;;;;;38.77;14.10;;;;;;;18.88;100.00;100676.00;7368755;19;20455;-53
2023/10/03 10:32:18;;;;;;;27.67;11.53;;;;;;;18.85;100.00;100668.13;7390221;19;20406;-51
2023/10/03 10:34:49;;;;;;;20.70;9.03;;;;;;;18.81;100.00;100675.06;7369666;19;20411;-52
2023/10/03 10:37:22;;;;;;;31.03;15.87;;;;;;;18.61;100.00;100701.94;7391422;19;20414;-51
2023/10/03 10:40:21;;;;;;;20.60;9.03;;;;;;;18.21;100.00;100736.41;7368216;19;20538;-55
2023/10/03 10:43:16;;;;;;;24.20;12.03;;;;;;;17.80;100.00;100782.06;7391595;19;20734;-53
2023/10/03 10:45:50;;;;;;;11.73;5.30;;;;;;;17.64;100.00;100783.59;7369670;19;20458;-48
2023/10/03 10:48:39;;;;;;;22.53;11.17;;;;;;;17.36;100.00;100775.41;7390607;19;20423;-53
2023/10/03 10:51:08;;;;;;;18.50;8.70;;;;;;;17.14;100.00;100753.38;7368651;19;20824;-52
2023/10/03 10:53:48;;;;;;;17.23;8.93;;;;;;;16.97;100.00;100724.44;7390664;19;20400;-53
2023/10/03 10:56:18;;;;;;;15.70;5.80;;;;;;;16.45;100.00;100655.03;7367307;19;20430;-54
2023/10/03 10:58:50;;;;;;;17.30;5.57;;;;;;;16.12;100.00;100614.59;7391257;19;20428;-46
2023/10/03 11:01:20;;;;;;;8.73;4.50;;;;;;;15.87;100.00;100569.91;7367025;19;20829;-46
2023/10/03 11:03:53;;;;;;;8.30;3.80;;;;;;;15.77;100.00;100554.16;7372689;19;20418;-50
2023/10/03 11:06:23;;;;;;;7.53;3.53;;;;;;;15.77;100.00;100538.56;7399381;19;20403;-49
2023/10/03 11:08:54;;;;;;;14.50;3.60;;;;;;;15.75;100.00;100529.84;7375513;19;21030;-51
2023/10/03 11:11:34;;;;;;;8.00;4.00;;;;;;;15.79;100.00;100495.22;7395168;19;20428;-55
2023/10/03 11:14:04;;;;;;;8.50;4.33;;;;;;;15.75;100.00;100483.03;7375067;19;20420;-48
2023/10/03 11:16:33;;;;;;;8.20;3.70;;;;;;;15.76;100.00;100466.59;7395965;19;20439;-52
2023/10/03 11:19:06;;;;;;;12.63;4.57;;;;;;;15.78;100.00;100449.28;7378271;19;20479;-49
2023/10/03 11:21:36;;;;;;;9.10;3.97;;;;;;;15.78;100.00;100436.28;7394691;19;20408;-51
2023/10/03 11:24:16;;;;;;;7.70;4.60;;;;;;;15.82;100.00;100420.69;7375929;19;20414;-50
2023/10/03 11:26:50;;;;;;;11.83;5.30;;;;;;;15.87;100.00;100414.72;7396343;19;20415;-49